Terminal Aerodrome Forecast
Issued by NWS Charleston, WV

Current Version | Previous Version | Graphics & Text | Print | Product List | Glossary On
Versions: 1 2 3 4 5 6 7 8 9 10 11 12 13 14 15 16 17 18 19 20 21 22 23 24 25 26 27 28 29 30 31
000
FTUS41 KRLX 261300 AAA
TAFCRW
TAF AMD
KCRW 261301Z 2613/2712 36004KT 6SM BR BKN004
     FM261330 35005KT P6SM BKN008
     FM261400 35005KT P6SM BKN015
     FM261700 34006KT P6SM BKN040
     FM262100 34008KT P6SM SCT060=

USA.gov is the U.S. government's official web portal to all federal, state and local government web resources and services.